sensor_id;sensor_type;location;lat;lon;timestamp;P1;durP1;ratioP1;P2;durP2;ratioP2
46507;SDS011;32223;53.654;10.014;2023-04-24T00:01:13;5.35;;;3.88;;
46507;SDS011;32223;53.654;10.014;2023-04-24T00:03:40;7.63;;;4.47;;
46507;SDS011;32223;53.654;10.014;2023-04-24T00:06:06;5.18;;;3.70;;
46507;SDS011;32223;53.654;10.014;2023-04-24T00:08:33;6.53;;;4.53;;
46507;SDS011;32223;53.654;10.014;2023-04-24T00:11:00;6.55;;;4.70;;
46507;SDS011;32223;53.654;10.014;2023-04-24T00:13:26;6.00;;;4.75;;
46507;SDS011;32223;53.654;10.014;2023-04-24T00:15:53;7.07;;;4.72;;
46507;SDS011;32223;53.654;10.014;2023-04-24T00:18:22;6.45;;;4.65;;
46507;SDS011;32223;53.654;10.014;2023-04-24T00:20:47;7.68;;;5.50;;
46507;SDS011;32223;53.654;10.014;2023-04-24T00:23:13;7.95;;;4.15;;
46507;SDS011;32223;53.654;10.014;2023-04-24T00:25:39;6.28;;;4.38;;
46507;SDS011;32223;53.654;10.014;2023-04-24T00:28:05;5.57;;;4.00;;
46507;SDS011;32223;53.654;10.014;2023-04-24T00:30:30;6.25;;;3.83;;
46507;SDS011;32223;53.654;10.014;2023-04-24T00:32:57;5.80;;;4.05;;
46507;SDS011;32223;53.654;10.014;2023-04-24T00:35:22;4.82;;;3.78;;
46507;SDS011;32223;53.654;10.014;2023-04-24T00:37:48;5.10;;;4.00;;
46507;SDS011;32223;53.654;10.014;2023-04-24T00:40:14;5.50;;;4.20;;
46507;SDS011;32223;53.654;10.014;2023-04-24T00:42:40;7.03;;;4.38;;
46507;SDS011;32223;53.654;10.014;2023-04-24T00:45:06;4.93;;;3.80;;
46507;SDS011;32223;53.654;10.014;2023-04-24T00:47:33;5.25;;;4.03;;
46507;SDS011;32223;53.654;10.014;2023-04-24T00:50:01;7.38;;;4.90;;
46507;SDS011;32223;53.654;10.014;2023-04-24T00:52:28;8.00;;;3.97;;
46507;SDS011;32223;53.654;10.014;2023-04-24T00:54:56;6.43;;;4.47;;
46507;SDS011;32223;53.654;10.014;2023-04-24T00:57:21;7.00;;;4.38;;
46507;SDS011;32223;53.654;10.014;2023-04-24T00:59:48;6.97;;;4.78;;
46507;SDS011;32223;53.654;10.014;2023-04-24T01:02:15;6.30;;;4.30;;
46507;SDS011;32223;53.654;10.014;2023-04-24T01:04:40;6.78;;;4.20;;
46507;SDS011;32223;53.654;10.014;2023-04-24T01:07:06;7.72;;;4.40;;
46507;SDS011;32223;53.654;10.014;2023-04-24T01:09:35;6.40;;;4.45;;
46507;SDS011;32223;53.654;10.014;2023-04-24T01:12:09;5.68;;;4.03;;
46507;SDS011;32223;53.654;10.014;2023-04-24T01:14:35;7.20;;;4.32;;
46507;SDS011;32223;53.654;10.014;2023-04-24T01:17:01;5.28;;;3.95;;
46507;SDS011;32223;53.654;10.014;2023-04-24T01:19:27;5.50;;;4.05;;
46507;SDS011;32223;53.654;10.014;2023-04-24T01:21:53;6.65;;;4.25;;
46507;SDS011;32223;53.654;10.014;2023-04-24T01:24:22;6.50;;;4.88;;
46507;SDS011;32223;53.654;10.014;2023-04-24T01:26:47;5.80;;;4.70;;
46507;SDS011;32223;53.654;10.014;2023-04-24T01:29:13;6.47;;;4.20;;
46507;SDS011;32223;53.654;10.014;2023-04-24T01:31:39;7.10;;;4.93;;
46507;SDS011;32223;53.654;10.014;2023-04-24T01:34:05;5.43;;;4.25;;
46507;SDS011;32223;53.654;10.014;2023-04-24T01:36:31;6.40;;;4.85;;
46507;SDS011;32223;53.654;10.014;2023-04-24T01:38:58;8.57;;;4.22;;
46507;SDS011;32223;53.654;10.014;2023-04-24T01:41:23;12.95;;;9.68;;
46507;SDS011;32223;53.654;10.014;2023-04-24T01:43:50;5.78;;;4.53;;
46507;SDS011;32223;53.654;10.014;2023-04-24T01:46:16;7.53;;;4.70;;
46507;SDS011;32223;53.654;10.014;2023-04-24T01:48:41;6.75;;;4.10;;
46507;SDS011;32223;53.654;10.014;2023-04-24T01:51:07;7.85;;;4.35;;
46507;SDS011;32223;53.654;10.014;2023-04-24T01:53:33;5.55;;;4.38;;
46507;SDS011;32223;53.654;10.014;2023-04-24T01:55:59;5.70;;;3.75;;
46507;SDS011;32223;53.654;10.014;2023-04-24T01:58:26;5.32;;;3.08;;
46507;SDS011;32223;53.654;10.014;2023-04-24T02:00:52;4.85;;;3.58;;
46507;SDS011;32223;53.654;10.014;2023-04-24T02:03:17;6.72;;;3.80;;
46507;SDS011;32223;53.654;10.014;2023-04-24T02:05:43;5.45;;;3.45;;
46507;SDS011;32223;53.654;10.014;2023-04-24T02:08:10;4.38;;;3.30;;
46507;SDS011;32223;53.654;10.014;2023-04-24T02:10:35;6.45;;;3.20;;
46507;SDS011;32223;53.654;10.014;2023-04-24T02:13:01;5.38;;;3.03;;
46507;SDS011;32223;53.654;10.014;2023-04-24T02:15:27;3.95;;;2.53;;
46507;SDS011;32223;53.654;10.014;2023-04-24T02:17:53;5.00;;;2.60;;
46507;SDS011;32223;53.654;10.014;2023-04-24T02:20:18;3.95;;;2.50;;
46507;SDS011;32223;53.654;10.014;2023-04-24T02:22:44;3.67;;;2.60;;
46507;SDS011;32223;53.654;10.014;2023-04-24T02:25:10;3.83;;;2.25;;
46507;SDS011;32223;53.654;10.014;2023-04-24T02:27:35;2.75;;;2.03;;
46507;SDS011;32223;53.654;10.014;2023-04-24T02:30:01;2.85;;;1.88;;
46507;SDS011;32223;53.654;10.014;2023-04-24T02:32:27;2.22;;;1.77;;
46507;SDS011;32223;53.654;10.014;2023-04-24T02:34:53;2.15;;;1.52;;
46507;SDS011;32223;53.654;10.014;2023-04-24T02:37:19;1.95;;;1.30;;
46507;SDS011;32223;53.654;10.014;2023-04-24T02:39:44;2.88;;;1.38;;
46507;SDS011;32223;53.654;10.014;2023-04-24T02:42:10;2.28;;;1.27;;
46507;SDS011;32223;53.654;10.014;2023-04-24T02:44:35;2.28;;;1.40;;
46507;SDS011;32223;53.654;10.014;2023-04-24T02:47:01;4.35;;;1.95;;
46507;SDS011;32223;53.654;10.014;2023-04-24T02:49:27;2.58;;;1.40;;
46507;SDS011;32223;53.654;10.014;2023-04-24T02:51:52;2.65;;;1.70;;
46507;SDS011;32223;53.654;10.014;2023-04-24T02:54:18;3.55;;;1.70;;
46507;SDS011;32223;53.654;10.014;2023-04-24T02:56:43;2.42;;;1.75;;
46507;SDS011;32223;53.654;10.014;2023-04-24T02:59:09;2.55;;;1.88;;
46507;SDS011;32223;53.654;10.014;2023-04-24T03:01:35;2.50;;;1.77;;
46507;SDS011;32223;53.654;10.014;2023-04-24T03:04:01;5.38;;;2.10;;
46507;SDS011;32223;53.654;10.014;2023-04-24T03:06:26;3.45;;;2.22;;
46507;SDS011;32223;53.654;10.014;2023-04-24T03:08:53;3.42;;;1.90;;
46507;SDS011;32223;53.654;10.014;2023-04-24T03:11:19;4.03;;;1.90;;
46507;SDS011;32223;53.654;10.014;2023-04-24T03:13:45;2.72;;;2.20;;
46507;SDS011;32223;53.654;10.014;2023-04-24T03:16:10;2.45;;;2.05;;
46507;SDS011;32223;53.654;10.014;2023-04-24T03:18:36;2.70;;;1.73;;
46507;SDS011;32223;53.654;10.014;2023-04-24T03:21:01;2.97;;;1.88;;
46507;SDS011;32223;53.654;10.014;2023-04-24T03:23:28;2.30;;;1.75;;
46507;SDS011;32223;53.654;10.014;2023-04-24T03:25:54;5.00;;;2.03;;
46507;SDS011;32223;53.654;10.014;2023-04-24T03:28:20;2.25;;;1.75;;
46507;SDS011;32223;53.654;10.014;2023-04-24T03:30:45;1.88;;;1.48;;
46507;SDS011;32223;53.654;10.014;2023-04-24T03:33:11;3.05;;;1.85;;
46507;SDS011;32223;53.654;10.014;2023-04-24T03:35:37;2.28;;;1.48;;
46507;SDS011;32223;53.654;10.014;2023-04-24T03:38:02;4.30;;;1.60;;
46507;SDS011;32223;53.654;10.014;2023-04-24T03:40:29;3.15;;;1.58;;
46507;SDS011;32223;53.654;10.014;2023-04-24T03:42:55;2.40;;;1.40;;
46507;SDS011;32223;53.654;10.014;2023-04-24T03:45:21;2.58;;;1.60;;
46507;SDS011;32223;53.654;10.014;2023-04-24T03:47:46;2.45;;;1.70;;
46507;SDS011;32223;53.654;10.014;2023-04-24T03:50:12;3.22;;;2.38;;
46507;SDS011;32223;53.654;10.014;2023-04-24T03:52:37;2.17;;;1.40;;
46507;SDS011;32223;53.654;10.014;2023-04-24T03:55:03;2.60;;;1.65;;
46507;SDS011;32223;53.654;10.014;2023-04-24T03:57:29;2.15;;;1.42;;
46507;SDS011;32223;53.654;10.014;2023-04-24T03:59:55;2.60;;;1.50;;
46507;SDS011;32223;53.654;10.014;2023-04-24T04:02:20;2.85;;;1.50;;
46507;SDS011;32223;53.654;10.014;2023-04-24T04:04:46;4.43;;;1.98;;
46507;SDS011;32223;53.654;10.014;2023-04-24T04:07:11;2.53;;;1.30;;
46507;SDS011;32223;53.654;10.014;2023-04-24T04:09:37;2.50;;;1.65;;
46507;SDS011;32223;53.654;10.014;2023-04-24T04:12:03;5.70;;;1.70;;
46507;SDS011;32223;53.654;10.014;2023-04-24T04:14:29;2.60;;;1.63;;
46507;SDS011;32223;53.654;10.014;2023-04-24T04:16:54;2.83;;;1.50;;
46507;SDS011;32223;53.654;10.014;2023-04-24T04:19:20;2.17;;;1.35;;
46507;SDS011;32223;53.654;10.014;2023-04-24T04:21:45;2.17;;;1.38;;
46507;SDS011;32223;53.654;10.014;2023-04-24T04:24:15;2.58;;;1.65;;
46507;SDS011;32223;53.654;10.014;2023-04-24T04:26:41;3.78;;;1.60;;
46507;SDS011;32223;53.654;10.014;2023-04-24T04:29:12;2.90;;;1.35;;
46507;SDS011;32223;53.654;10.014;2023-04-24T04:31:38;4.28;;;1.50;;
46507;SDS011;32223;53.654;10.014;2023-04-24T04:34:04;1.80;;;1.10;;
46507;SDS011;32223;53.654;10.014;2023-04-24T04:36:29;2.00;;;1.42;;
46507;SDS011;32223;53.654;10.014;2023-04-24T04:38:55;3.08;;;1.40;;
46507;SDS011;32223;53.654;10.014;2023-04-24T04:41:21;3.30;;;1.52;;
46507;SDS011;32223;53.654;10.014;2023-04-24T04:43:47;2.00;;;1.55;;
46507;SDS011;32223;53.654;10.014;2023-04-24T04:46:13;2.20;;;1.40;;
46507;SDS011;32223;53.654;10.014;2023-04-24T04:48:38;1.60;;;0.98;;
46507;SDS011;32223;53.654;10.014;2023-04-24T04:51:05;1.77;;;1.15;;
46507;SDS011;32223;53.654;10.014;2023-04-24T04:53:31;1.90;;;1.02;;
46507;SDS011;32223;53.654;10.014;2023-04-24T04:55:56;2.70;;;1.30;;
46507;SDS011;32223;53.654;10.014;2023-04-24T04:58:22;2.47;;;1.40;;
46507;SDS011;32223;53.654;10.014;2023-04-24T05:00:48;1.20;;;0.90;;
46507;SDS011;32223;53.654;10.014;2023-04-24T05:03:14;2.17;;;1.00;;
46507;SDS011;32223;53.654;10.014;2023-04-24T05:05:40;2.80;;;1.42;;
46507;SDS011;32223;53.654;10.014;2023-04-24T05:08:06;4.78;;;1.95;;
46507;SDS011;32223;53.654;10.014;2023-04-24T05:10:33;3.28;;;1.55;;
46507;SDS011;32223;53.654;10.014;2023-04-24T05:12:59;2.33;;;1.20;;
46507;SDS011;32223;53.654;10.014;2023-04-24T05:15:25;5.82;;;2.35;;
46507;SDS011;32223;53.654;10.014;2023-04-24T05:17:51;1.48;;;0.85;;
46507;SDS011;32223;53.654;10.014;2023-04-24T05:20:16;2.38;;;1.25;;
46507;SDS011;32223;53.654;10.014;2023-04-24T05:22:42;2.70;;;0.90;;
46507;SDS011;32223;53.654;10.014;2023-04-24T05:25:08;2.20;;;1.50;;
46507;SDS011;32223;53.654;10.014;2023-04-24T05:27:34;2.72;;;1.10;;
46507;SDS011;32223;53.654;10.014;2023-04-24T05:29:59;1.65;;;1.00;;
46507;SDS011;32223;53.654;10.014;2023-04-24T05:32:25;1.95;;;1.50;;
46507;SDS011;32223;53.654;10.014;2023-04-24T05:34:52;2.28;;;1.17;;
46507;SDS011;32223;53.654;10.014;2023-04-24T05:37:17;2.00;;;0.98;;
46507;SDS011;32223;53.654;10.014;2023-04-24T05:39:43;1.58;;;0.77;;
46507;SDS011;32223;53.654;10.014;2023-04-24T05:42:08;1.80;;;1.20;;
46507;SDS011;32223;53.654;10.014;2023-04-24T05:44:34;1.95;;;0.90;;
46507;SDS011;32223;53.654;10.014;2023-04-24T05:47:00;1.45;;;0.90;;
46507;SDS011;32223;53.654;10.014;2023-04-24T05:49:25;1.17;;;0.85;;
46507;SDS011;32223;53.654;10.014;2023-04-24T05:51:51;1.38;;;0.68;;
46507;SDS011;32223;53.654;10.014;2023-04-24T05:54:17;1.42;;;1.05;;
46507;SDS011;32223;53.654;10.014;2023-04-24T05:56:42;2.33;;;0.82;;
46507;SDS011;32223;53.654;10.014;2023-04-24T05:59:08;2.22;;;0.98;;
46507;SDS011;32223;53.654;10.014;2023-04-24T06:01:33;3.35;;;1.40;;
46507;SDS011;32223;53.654;10.014;2023-04-24T06:03:59;1.63;;;0.85;;
46507;SDS011;32223;53.654;10.014;2023-04-24T06:06:25;1.90;;;1.23;;
46507;SDS011;32223;53.654;10.014;2023-04-24T06:08:52;3.08;;;1.08;;
46507;SDS011;32223;53.654;10.014;2023-04-24T06:11:17;2.85;;;1.10;;
46507;SDS011;32223;53.654;10.014;2023-04-24T06:13:43;2.03;;;1.70;;
46507;SDS011;32223;53.654;10.014;2023-04-24T06:16:09;2.08;;;1.23;;
46507;SDS011;32223;53.654;10.014;2023-04-24T06:18:35;2.25;;;1.30;;
46507;SDS011;32223;53.654;10.014;2023-04-24T06:21:01;3.47;;;1.15;;
46507;SDS011;32223;53.654;10.014;2023-04-24T06:23:26;3.03;;;1.35;;
46507;SDS011;32223;53.654;10.014;2023-04-24T06:25:52;2.90;;;1.40;;
46507;SDS011;32223;53.654;10.014;2023-04-24T06:28:18;1.63;;;1.27;;
46507;SDS011;32223;53.654;10.014;2023-04-24T06:30:43;1.58;;;0.88;;
46507;SDS011;32223;53.654;10.014;2023-04-24T06:33:09;3.95;;;1.30;;
46507;SDS011;32223;53.654;10.014;2023-04-24T06:35:35;2.38;;;1.30;;
46507;SDS011;32223;53.654;10.014;2023-04-24T06:38:02;3.75;;;1.52;;
46507;SDS011;32223;53.654;10.014;2023-04-24T06:40:28;3.92;;;1.77;;
46507;SDS011;32223;53.654;10.014;2023-04-24T06:42:54;4.57;;;2.53;;
46507;SDS011;32223;53.654;10.014;2023-04-24T06:45:19;2.60;;;1.23;;
46507;SDS011;32223;53.654;10.014;2023-04-24T06:47:45;3.75;;;1.40;;
46507;SDS011;32223;53.654;10.014;2023-04-24T06:50:11;3.58;;;1.40;;
46507;SDS011;32223;53.654;10.014;2023-04-24T06:52:37;2.65;;;1.05;;
46507;SDS011;32223;53.654;10.014;2023-04-24T06:55:03;2.67;;;1.08;;
46507;SDS011;32223;53.654;10.014;2023-04-24T06:57:29;2.03;;;1.02;;
46507;SDS011;32223;53.654;10.014;2023-04-24T06:59:55;1.50;;;1.05;;
46507;SDS011;32223;53.654;10.014;2023-04-24T07:02:21;2.83;;;1.25;;
46507;SDS011;32223;53.654;10.014;2023-04-24T07:04:46;2.70;;;1.20;;
46507;SDS011;32223;53.654;10.014;2023-04-24T07:07:12;2.92;;;1.08;;
46507;SDS011;32223;53.654;10.014;2023-04-24T07:09:39;1.90;;;1.10;;
46507;SDS011;32223;53.654;10.014;2023-04-24T07:12:09;2.58;;;1.20;;
46507;SDS011;32223;53.654;10.014;2023-04-24T07:14:38;3.08;;;1.20;;
46507;SDS011;32223;53.654;10.014;2023-04-24T07:17:04;4.95;;;3.05;;
46507;SDS011;32223;53.654;10.014;2023-04-24T07:19:31;2.25;;;1.30;;
46507;SDS011;32223;53.654;10.014;2023-04-24T07:21:58;9.00;;;5.53;;
46507;SDS011;32223;53.654;10.014;2023-04-24T07:24:24;14.02;;;8.05;;
46507;SDS011;32223;53.654;10.014;2023-04-24T07:26:50;3.28;;;2.30;;
46507;SDS011;32223;53.654;10.014;2023-04-24T07:29:17;3.50;;;2.10;;
46507;SDS011;32223;53.654;10.014;2023-04-24T07:31:43;1.88;;;1.33;;
46507;SDS011;32223;53.654;10.014;2023-04-24T07:34:09;3.33;;;1.90;;
46507;SDS011;32223;53.654;10.014;2023-04-24T07:36:34;2.20;;;1.60;;
46507;SDS011;32223;53.654;10.014;2023-04-24T07:39:00;2.13;;;1.58;;
46507;SDS011;32223;53.654;10.014;2023-04-24T07:41:26;2.65;;;1.83;;
46507;SDS011;32223;53.654;10.014;2023-04-24T07:43:53;3.00;;;1.52;;
46507;SDS011;32223;53.654;10.014;2023-04-24T07:46:18;2.25;;;1.58;;
46507;SDS011;32223;53.654;10.014;2023-04-24T07:48:45;5.28;;;2.42;;
46507;SDS011;32223;53.654;10.014;2023-04-24T07:51:12;2.42;;;2.03;;
46507;SDS011;32223;53.654;10.014;2023-04-24T07:53:39;2.55;;;1.95;;
46507;SDS011;32223;53.654;10.014;2023-04-24T07:56:05;2.70;;;1.65;;
46507;SDS011;32223;53.654;10.014;2023-04-24T07:58:31;2.40;;;2.10;;
46507;SDS011;32223;53.654;10.014;2023-04-24T08:00:56;3.13;;;2.22;;
46507;SDS011;32223;53.654;10.014;2023-04-24T08:03:22;2.65;;;2.05;;
46507;SDS011;32223;53.654;10.014;2023-04-24T08:05:49;2.92;;;2.47;;
46507;SDS011;32223;53.654;10.014;2023-04-24T08:08:15;2.78;;;2.30;;
46507;SDS011;32223;53.654;10.014;2023-04-24T08:10:42;3.10;;;2.40;;
46507;SDS011;32223;53.654;10.014;2023-04-24T08:13:07;3.33;;;2.17;;
46507;SDS011;32223;53.654;10.014;2023-04-24T08:15:33;3.17;;;2.22;;
46507;SDS011;32223;53.654;10.014;2023-04-24T08:17:59;3.40;;;2.10;;
46507;SDS011;32223;53.654;10.014;2023-04-24T08:20:25;3.17;;;2.33;;
46507;SDS011;32223;53.654;10.014;2023-04-24T08:22:50;3.38;;;2.33;;
46507;SDS011;32223;53.654;10.014;2023-04-24T08:25:16;4.75;;;2.65;;
46507;SDS011;32223;53.654;10.014;2023-04-24T08:27:42;4.57;;;2.80;;
46507;SDS011;32223;53.654;10.014;2023-04-24T08:30:08;3.22;;;2.33;;
46507;SDS011;32223;53.654;10.014;2023-04-24T08:32:34;8.57;;;3.33;;
46507;SDS011;32223;53.654;10.014;2023-04-24T08:35:00;3.78;;;2.45;;
46507;SDS011;32223;53.654;10.014;2023-04-24T08:37:26;3.60;;;2.88;;
46507;SDS011;32223;53.654;10.014;2023-04-24T08:39:52;3.95;;;3.38;;
46507;SDS011;32223;53.654;10.014;2023-04-24T08:42:18;5.60;;;4.03;;
46507;SDS011;32223;53.654;10.014;2023-04-24T08:44:45;4.43;;;3.40;;
46507;SDS011;32223;53.654;10.014;2023-04-24T08:47:13;9.13;;;5.47;;
46507;SDS011;32223;53.654;10.014;2023-04-24T08:49:39;4.97;;;3.20;;
46507;SDS011;32223;53.654;10.014;2023-04-24T08:52:05;4.97;;;3.97;;
46507;SDS011;32223;53.654;10.014;2023-04-24T08:54:31;4.40;;;3.22;;
46507;SDS011;32223;53.654;10.014;2023-04-24T08:57:00;5.03;;;3.10;;
46507;SDS011;32223;53.654;10.014;2023-04-24T08:59:26;4.90;;;3.40;;
46507;SDS011;32223;53.654;10.014;2023-04-24T09:01:53;4.63;;;3.35;;
46507;SDS011;32223;53.654;10.014;2023-04-24T09:04:20;4.10;;;3.20;;
46507;SDS011;32223;53.654;10.014;2023-04-24T09:06:49;4.47;;;3.13;;
46507;SDS011;32223;53.654;10.014;2023-04-24T09:09:23;5.05;;;3.30;;
46507;SDS011;32223;53.654;10.014;2023-04-24T09:11:49;6.05;;;3.80;;
46507;SDS011;32223;53.654;10.014;2023-04-24T09:14:16;4.68;;;3.63;;
46507;SDS011;32223;53.654;10.014;2023-04-24T09:16:42;5.18;;;4.18;;
46507;SDS011;32223;53.654;10.014;2023-04-24T09:19:08;5.10;;;3.67;;
46507;SDS011;32223;53.654;10.014;2023-04-24T09:21:35;5.47;;;4.10;;
46507;SDS011;32223;53.654;10.014;2023-04-24T09:24:01;3.97;;;3.42;;
46507;SDS011;32223;53.654;10.014;2023-04-24T09:26:34;6.70;;;3.95;;
46507;SDS011;32223;53.654;10.014;2023-04-24T09:29:01;4.38;;;3.58;;
46507;SDS011;32223;53.654;10.014;2023-04-24T09:31:28;5.38;;;3.53;;
46507;SDS011;32223;53.654;10.014;2023-04-24T09:33:55;5.60;;;3.83;;
46507;SDS011;32223;53.654;10.014;2023-04-24T09:36:30;4.90;;;4.00;;
46507;SDS011;32223;53.654;10.014;2023-04-24T09:39:02;4.45;;;3.55;;
46507;SDS011;32223;53.654;10.014;2023-04-24T09:41:31;5.80;;;4.20;;
46507;SDS011;32223;53.654;10.014;2023-04-24T09:43:58;6.13;;;3.95;;
46507;SDS011;32223;53.654;10.014;2023-04-24T09:46:37;5.45;;;4.15;;
46507;SDS011;32223;53.654;10.014;2023-04-24T09:49:10;5.30;;;3.10;;
46507;SDS011;32223;53.654;10.014;2023-04-24T09:51:42;5.07;;;3.10;;
46507;SDS011;32223;53.654;10.014;2023-04-24T09:54:17;4.78;;;3.90;;
46507;SDS011;32223;53.654;10.014;2023-04-24T09:56:48;3.75;;;3.00;;
46507;SDS011;32223;53.654;10.014;2023-04-24T09:59:15;5.72;;;3.70;;
46507;SDS011;32223;53.654;10.014;2023-04-24T10:01:42;5.75;;;4.22;;
46507;SDS011;32223;53.654;10.014;2023-04-24T10:04:30;5.80;;;4.47;;
46507;SDS011;32223;53.654;10.014;2023-04-24T10:09:25;6.75;;;3.88;;
46507;SDS011;32223;53.654;10.014;2023-04-24T10:11:52;6.80;;;4.22;;
46507;SDS011;32223;53.654;10.014;2023-04-24T10:14:22;5.15;;;3.50;;
46507;SDS011;32223;53.654;10.014;2023-04-24T10:16:49;7.22;;;4.57;;
46507;SDS011;32223;53.654;10.014;2023-04-24T10:19:17;6.30;;;4.38;;
46507;SDS011;32223;53.654;10.014;2023-04-24T10:21:46;6.93;;;5.35;;
46507;SDS011;32223;53.654;10.014;2023-04-24T10:24:14;8.35;;;5.45;;
46507;SDS011;32223;53.654;10.014;2023-04-24T10:26:46;7.22;;;4.95;;
46507;SDS011;32223;53.654;10.014;2023-04-24T10:29:13;9.18;;;6.05;;
46507;SDS011;32223;53.654;10.014;2023-04-24T10:31:42;8.35;;;5.22;;
46507;SDS011;32223;53.654;10.014;2023-04-24T10:34:10;7.80;;;5.15;;
46507;SDS011;32223;53.654;10.014;2023-04-24T10:36:38;8.38;;;5.53;;
46507;SDS011;32223;53.654;10.014;2023-04-24T10:39:07;8.82;;;6.00;;
46507;SDS011;32223;53.654;10.014;2023-04-24T10:41:37;10.23;;;7.00;;
46507;SDS011;32223;53.654;10.014;2023-04-24T10:44:10;11.95;;;7.65;;
46507;SDS011;32223;53.654;10.014;2023-04-24T10:46:37;10.35;;;6.30;;
46507;SDS011;32223;53.654;10.014;2023-04-24T10:49:03;11.77;;;6.47;;
46507;SDS011;32223;53.654;10.014;2023-04-24T10:54:26;10.50;;;7.18;;
46507;SDS011;32223;53.654;10.014;2023-04-24T10:59:46;9.35;;;5.85;;
46507;SDS011;32223;53.654;10.014;2023-04-24T11:02:16;13.13;;;6.43;;
46507;SDS011;32223;53.654;10.014;2023-04-24T11:04:43;9.50;;;6.28;;
46507;SDS011;32223;53.654;10.014;2023-04-24T11:07:10;10.15;;;6.38;;
46507;SDS011;32223;53.654;10.014;2023-04-24T11:09:36;9.70;;;6.60;;
46507;SDS011;32223;53.654;10.014;2023-04-24T11:12:08;9.70;;;6.60;;
46507;SDS011;32223;53.654;10.014;2023-04-24T11:20:00;7.30;;;4.85;;
46507;SDS011;32223;53.654;10.014;2023-04-24T11:22:26;7.78;;;4.90;;
46507;SDS011;32223;53.654;10.014;2023-04-24T11:24:56;8.98;;;6.38;;
46507;SDS011;32223;53.654;10.014;2023-04-24T11:27:27;12.32;;;6.07;;
46507;SDS011;32223;53.654;10.014;2023-04-24T11:30:05;9.48;;;5.65;;
46507;SDS011;32223;53.654;10.014;2023-04-24T11:35:03;12.20;;;7.65;;
46507;SDS011;32223;53.654;10.014;2023-04-24T11:40:01;7.78;;;5.88;;
46507;SDS011;32223;53.654;10.014;2023-04-24T11:42:28;7.07;;;5.55;;
46507;SDS011;32223;53.654;10.014;2023-04-24T11:45:02;7.72;;;5.47;;
46507;SDS011;32223;53.654;10.014;2023-04-24T11:47:33;9.32;;;5.57;;
46507;SDS011;32223;53.654;10.014;2023-04-24T11:49:59;6.95;;;5.65;;
46507;SDS011;32223;53.654;10.014;2023-04-24T11:52:29;7.07;;;5.22;;
46507;SDS011;32223;53.654;10.014;2023-04-24T11:54:55;9.57;;;5.70;;
46507;SDS011;32223;53.654;10.014;2023-04-24T11:57:21;7.47;;;5.20;;
46507;SDS011;32223;53.654;10.014;2023-04-24T11:59:51;7.00;;;5.45;;
46507;SDS011;32223;53.654;10.014;2023-04-24T12:02:23;8.90;;;5.38;;
46507;SDS011;32223;53.654;10.014;2023-04-24T12:04:50;9.65;;;6.35;;
46507;SDS011;32223;53.654;10.014;2023-04-24T12:07:19;8.25;;;6.47;;
46507;SDS011;32223;53.654;10.014;2023-04-24T12:09:46;14.65;;;9.68;;
46507;SDS011;32223;53.654;10.014;2023-04-24T12:12:19;8.80;;;7.18;;
46507;SDS011;32223;53.654;10.014;2023-04-24T12:14:48;7.35;;;4.93;;
46507;SDS011;32223;53.654;10.014;2023-04-24T12:17:15;6.22;;;4.20;;
46507;SDS011;32223;53.654;10.014;2023-04-24T12:19:45;6.00;;;4.72;;
46507;SDS011;32223;53.654;10.014;2023-04-24T12:22:12;7.70;;;4.55;;
46507;SDS011;32223;53.654;10.014;2023-04-24T12:24:55;6.60;;;4.90;;
46507;SDS011;32223;53.654;10.014;2023-04-24T12:27:26;5.25;;;4.18;;
46507;SDS011;32223;53.654;10.014;2023-04-24T12:29:56;6.03;;;4.22;;
46507;SDS011;32223;53.654;10.014;2023-04-24T12:32:24;5.90;;;4.35;;
46507;SDS011;32223;53.654;10.014;2023-04-24T12:34:53;5.70;;;4.28;;
46507;SDS011;32223;53.654;10.014;2023-04-24T12:37:19;6.88;;;4.25;;
46507;SDS011;32223;53.654;10.014;2023-04-24T12:42:33;6.47;;;3.58;;
46507;SDS011;32223;53.654;10.014;2023-04-24T12:45:01;9.25;;;4.72;;
46507;SDS011;32223;53.654;10.014;2023-04-24T12:47:31;6.60;;;5.05;;
46507;SDS011;32223;53.654;10.014;2023-04-24T12:49:58;5.55;;;3.85;;
46507;SDS011;32223;53.654;10.014;2023-04-24T12:52:25;6.30;;;4.53;;
46507;SDS011;32223;53.654;10.014;2023-04-24T12:54:55;7.45;;;4.18;;
46507;SDS011;32223;53.654;10.014;2023-04-24T12:57:25;7.78;;;4.63;;
46507;SDS011;32223;53.654;10.014;2023-04-24T12:59:56;7.88;;;4.57;;
46507;SDS011;32223;53.654;10.014;2023-04-24T13:02:23;6.07;;;5.00;;
46507;SDS011;32223;53.654;10.014;2023-04-24T13:04:51;5.93;;;4.28;;
46507;SDS011;32223;53.654;10.014;2023-04-24T13:07:17;6.55;;;4.55;;
46507;SDS011;32223;53.654;10.014;2023-04-24T13:09:43;7.63;;;4.30;;
46507;SDS011;32223;53.654;10.014;2023-04-24T13:12:10;6.65;;;4.32;;
46507;SDS011;32223;53.654;10.014;2023-04-24T13:14:37;6.82;;;4.05;;
46507;SDS011;32223;53.654;10.014;2023-04-24T13:17:03;8.20;;;4.43;;
46507;SDS011;32223;53.654;10.014;2023-04-24T13:19:29;7.82;;;4.05;;
46507;SDS011;32223;53.654;10.014;2023-04-24T13:22:00;5.80;;;3.95;;
46507;SDS011;32223;53.654;10.014;2023-04-24T13:24:25;6.15;;;4.68;;
46507;SDS011;32223;53.654;10.014;2023-04-24T13:26:54;5.75;;;4.00;;
46507;SDS011;32223;53.654;10.014;2023-04-24T13:29:21;6.25;;;4.20;;
46507;SDS011;32223;53.654;10.014;2023-04-24T13:31:49;5.18;;;4.10;;
46507;SDS011;32223;53.654;10.014;2023-04-24T13:34:16;5.95;;;3.95;;
46507;SDS011;32223;53.654;10.014;2023-04-24T13:36:42;5.60;;;3.70;;
46507;SDS011;32223;53.654;10.014;2023-04-24T13:39:07;11.52;;;6.30;;
46507;SDS011;32223;53.654;10.014;2023-04-24T13:41:33;5.38;;;4.47;;
46507;SDS011;32223;53.654;10.014;2023-04-24T13:44:00;6.22;;;4.07;;
46507;SDS011;32223;53.654;10.014;2023-04-24T13:46:26;4.10;;;3.22;;
46507;SDS011;32223;53.654;10.014;2023-04-24T13:48:51;4.40;;;3.40;;
46507;SDS011;32223;53.654;10.014;2023-04-24T13:51:17;5.18;;;3.53;;
46507;SDS011;32223;53.654;10.014;2023-04-24T13:53:43;4.78;;;3.45;;
46507;SDS011;32223;53.654;10.014;2023-04-24T13:56:08;5.75;;;3.55;;
46507;SDS011;32223;53.654;10.014;2023-04-24T13:58:34;5.45;;;3.60;;
46507;SDS011;32223;53.654;10.014;2023-04-24T14:01:03;5.72;;;3.50;;
46507;SDS011;32223;53.654;10.014;2023-04-24T14:03:29;5.65;;;3.67;;
46507;SDS011;32223;53.654;10.014;2023-04-24T14:05:54;5.18;;;3.65;;
46507;SDS011;32223;53.654;10.014;2023-04-24T14:08:20;4.70;;;3.60;;
46507;SDS011;32223;53.654;10.014;2023-04-24T14:10:46;5.70;;;3.80;;
46507;SDS011;32223;53.654;10.014;2023-04-24T14:13:11;5.00;;;3.63;;
46507;SDS011;32223;53.654;10.014;2023-04-24T14:15:37;5.72;;;3.67;;
46507;SDS011;32223;53.654;10.014;2023-04-24T14:18:03;6.80;;;3.90;;
46507;SDS011;32223;53.654;10.014;2023-04-24T14:20:29;5.15;;;3.47;;
46507;SDS011;32223;53.654;10.014;2023-04-24T14:22:54;4.55;;;3.45;;
46507;SDS011;32223;53.654;10.014;2023-04-24T14:25:20;5.13;;;3.40;;
46507;SDS011;32223;53.654;10.014;2023-04-24T14:27:47;4.68;;;3.60;;
46507;SDS011;32223;53.654;10.014;2023-04-24T14:30:13;6.88;;;3.47;;
46507;SDS011;32223;53.654;10.014;2023-04-24T14:32:40;4.80;;;3.78;;
46507;SDS011;32223;53.654;10.014;2023-04-24T14:35:06;5.55;;;3.88;;
46507;SDS011;32223;53.654;10.014;2023-04-24T14:37:32;5.95;;;3.97;;
46507;SDS011;32223;53.654;10.014;2023-04-24T14:39:57;4.97;;;3.97;;
46507;SDS011;32223;53.654;10.014;2023-04-24T14:42:23;6.97;;;4.90;;
46507;SDS011;32223;53.654;10.014;2023-04-24T14:44:49;8.25;;;5.90;;
46507;SDS011;32223;53.654;10.014;2023-04-24T14:47:15;10.25;;;6.15;;
46507;SDS011;32223;53.654;10.014;2023-04-24T14:49:42;11.52;;;7.22;;
46507;SDS011;32223;53.654;10.014;2023-04-24T14:52:08;11.10;;;7.93;;